sensor_id;sensor_type;location;lat;lon;timestamp;temperature;humidity
52787;DHT22;38661;53.152;5.846;2023-05-07T00:00:12;13.70;92.20
52787;DHT22;38661;53.152;5.846;2023-05-07T00:02:40;13.70;92.00
52787;DHT22;38661;53.152;5.846;2023-05-07T00:05:06;13.70;92.00
52787;DHT22;38661;53.152;5.846;2023-05-07T00:07:32;13.70;91.90
52787;DHT22;38661;53.152;5.846;2023-05-07T00:09:58;13.70;91.90
52787;DHT22;38661;53.152;5.846;2023-05-07T00:12:24;13.70;91.90
52787;DHT22;38661;53.152;5.846;2023-05-07T00:14:49;13.70;92.00
52787;DHT22;38661;53.152;5.846;2023-05-07T00:17:15;13.70;92.00
52787;DHT22;38661;53.152;5.846;2023-05-07T00:19:41;13.70;92.20
52787;DHT22;38661;53.152;5.846;2023-05-07T00:22:07;13.70;92.30
52787;DHT22;38661;53.152;5.846;2023-05-07T00:24:33;13.70;92.50
52787;DHT22;38661;53.152;5.846;2023-05-07T00:26:59;13.60;92.70
52787;DHT22;38661;53.152;5.846;2023-05-07T00:29:25;13.60;92.70
52787;DHT22;38661;53.152;5.846;2023-05-07T00:31:51;13.60;92.80
52787;DHT22;38661;53.152;5.846;2023-05-07T00:34:19;13.60;93.10
52787;DHT22;38661;53.152;5.846;2023-05-07T00:36:45;13.50;93.50
52787;DHT22;38661;53.152;5.846;2023-05-07T00:39:11;13.50;93.90
52787;DHT22;38661;53.152;5.846;2023-05-07T00:41:36;13.50;94.00
52787;DHT22;38661;53.152;5.846;2023-05-07T00:44:02;13.50;93.90
52787;DHT22;38661;53.152;5.846;2023-05-07T00:46:28;13.40;94.20
52787;DHT22;38661;53.152;5.846;2023-05-07T00:48:56;13.40;94.30
52787;DHT22;38661;53.152;5.846;2023-05-07T00:51:23;13.40;94.30
52787;DHT22;38661;53.152;5.846;2023-05-07T00:53:50;13.30;94.50
52787;DHT22;38661;53.152;5.846;2023-05-07T00:56:16;13.40;94.70
52787;DHT22;38661;53.152;5.846;2023-05-07T00:58:42;13.30;94.40
52787;DHT22;38661;53.152;5.846;2023-05-07T01:01:08;13.30;94.50
52787;DHT22;38661;53.152;5.846;2023-05-07T01:03:34;13.30;94.50
52787;DHT22;38661;53.152;5.846;2023-05-07T01:06:00;13.30;94.50
52787;DHT22;38661;53.152;5.846;2023-05-07T01:08:28;13.30;94.50
52787;DHT22;38661;53.152;5.846;2023-05-07T01:10:55;13.30;94.50
52787;DHT22;38661;53.152;5.846;2023-05-07T01:13:21;13.20;94.90
52787;DHT22;38661;53.152;5.846;2023-05-07T01:15:47;13.20;94.90
52787;DHT22;38661;53.152;5.846;2023-05-07T01:18:13;13.20;95.00
52787;DHT22;38661;53.152;5.846;2023-05-07T01:20:41;13.20;95.00
52787;DHT22;38661;53.152;5.846;2023-05-07T01:23:07;13.20;94.90
52787;DHT22;38661;53.152;5.846;2023-05-07T01:25:33;13.20;95.00
52787;DHT22;38661;53.152;5.846;2023-05-07T01:27:58;13.20;95.00
52787;DHT22;38661;53.152;5.846;2023-05-07T01:30:28;13.20;95.10
52787;DHT22;38661;53.152;5.846;2023-05-07T01:35:27;13.20;95.00
52787;DHT22;38661;53.152;5.846;2023-05-07T01:37:54;13.10;95.00
52787;DHT22;38661;53.152;5.846;2023-05-07T01:40:20;13.10;95.00
52787;DHT22;38661;53.152;5.846;2023-05-07T01:42:47;13.00;95.20
52787;DHT22;38661;53.152;5.846;2023-05-07T01:45:13;13.00;95.50
52787;DHT22;38661;53.152;5.846;2023-05-07T01:47:40;13.00;95.60
52787;DHT22;38661;53.152;5.846;2023-05-07T01:50:07;13.00;95.70
52787;DHT22;38661;53.152;5.846;2023-05-07T01:52:34;13.00;95.70
52787;DHT22;38661;53.152;5.846;2023-05-07T01:55:00;12.90;95.90
52787;DHT22;38661;53.152;5.846;2023-05-07T01:57:25;12.90;95.80
52787;DHT22;38661;53.152;5.846;2023-05-07T01:59:51;12.90;95.90
52787;DHT22;38661;53.152;5.846;2023-05-07T02:02:17;13.00;96.10
52787;DHT22;38661;53.152;5.846;2023-05-07T02:05:00;12.90;96.20
52787;DHT22;38661;53.152;5.846;2023-05-07T02:07:27;12.90;96.10
52787;DHT22;38661;53.152;5.846;2023-05-07T02:09:53;12.90;96.00
52787;DHT22;38661;53.152;5.846;2023-05-07T02:12:21;12.90;96.00
52787;DHT22;38661;53.152;5.846;2023-05-07T02:14:47;12.80;96.20
52787;DHT22;38661;53.152;5.846;2023-05-07T02:17:12;12.80;96.30
52787;DHT22;38661;53.152;5.846;2023-05-07T02:19:38;12.80;96.20
52787;DHT22;38661;53.152;5.846;2023-05-07T02:22:04;12.80;96.30
52787;DHT22;38661;53.152;5.846;2023-05-07T02:24:29;12.70;96.30
52787;DHT22;38661;53.152;5.846;2023-05-07T02:26:55;12.70;96.30
52787;DHT22;38661;53.152;5.846;2023-05-07T02:29:21;12.70;96.40
52787;DHT22;38661;53.152;5.846;2023-05-07T02:31:47;12.70;96.30
52787;DHT22;38661;53.152;5.846;2023-05-07T02:34:16;12.70;96.30
52787;DHT22;38661;53.152;5.846;2023-05-07T02:36:42;12.70;96.20
52787;DHT22;38661;53.152;5.846;2023-05-07T02:39:08;12.70;96.30
52787;DHT22;38661;53.152;5.846;2023-05-07T02:41:34;12.60;96.30
52787;DHT22;38661;53.152;5.846;2023-05-07T02:44:00;12.60;96.30
52787;DHT22;38661;53.152;5.846;2023-05-07T02:46:25;12.60;96.20
52787;DHT22;38661;53.152;5.846;2023-05-07T02:48:51;12.60;96.20
52787;DHT22;38661;53.152;5.846;2023-05-07T02:51:21;12.50;96.10
52787;DHT22;38661;53.152;5.846;2023-05-07T02:53:47;12.60;96.20
52787;DHT22;38661;53.152;5.846;2023-05-07T02:56:13;12.50;96.20
52787;DHT22;38661;53.152;5.846;2023-05-07T02:58:38;12.50;96.20
52787;DHT22;38661;53.152;5.846;2023-05-07T03:01:05;12.50;96.20
52787;DHT22;38661;53.152;5.846;2023-05-07T03:03:31;12.50;96.20
52787;DHT22;38661;53.152;5.846;2023-05-07T03:05:57;12.50;96.20
52787;DHT22;38661;53.152;5.846;2023-05-07T03:08:22;12.50;96.10
52787;DHT22;38661;53.152;5.846;2023-05-07T03:10:48;12.40;96.10
52787;DHT22;38661;53.152;5.846;2023-05-07T03:13:14;12.40;96.10
52787;DHT22;38661;53.152;5.846;2023-05-07T03:15:40;12.40;96.10
52787;DHT22;38661;53.152;5.846;2023-05-07T03:18:05;12.40;96.10
52787;DHT22;38661;53.152;5.846;2023-05-07T03:20:31;12.40;96.10
52787;DHT22;38661;53.152;5.846;2023-05-07T03:22:57;12.30;96.10
52787;DHT22;38661;53.152;5.846;2023-05-07T03:25:23;12.30;96.20
52787;DHT22;38661;53.152;5.846;2023-05-07T03:27:48;12.30;96.00
52787;DHT22;38661;53.152;5.846;2023-05-07T03:30:14;12.30;95.80
52787;DHT22;38661;53.152;5.846;2023-05-07T03:32:40;12.30;95.90
52787;DHT22;38661;53.152;5.846;2023-05-07T03:35:06;12.30;95.70
52787;DHT22;38661;53.152;5.846;2023-05-07T03:37:32;12.30;95.70
52787;DHT22;38661;53.152;5.846;2023-05-07T03:39:58;12.20;95.50
52787;DHT22;38661;53.152;5.846;2023-05-07T03:42:24;12.20;95.50
52787;DHT22;38661;53.152;5.846;2023-05-07T03:44:49;12.10;95.40
52787;DHT22;38661;53.152;5.846;2023-05-07T03:47:15;12.10;95.40
52787;DHT22;38661;53.152;5.846;2023-05-07T03:49:41;12.10;95.40
52787;DHT22;38661;53.152;5.846;2023-05-07T03:52:07;12.10;95.40
52787;DHT22;38661;53.152;5.846;2023-05-07T03:54:32;12.00;95.40
52787;DHT22;38661;53.152;5.846;2023-05-07T03:56:58;12.00;95.50
52787;DHT22;38661;53.152;5.846;2023-05-07T03:59:24;12.00;95.60
52787;DHT22;38661;53.152;5.846;2023-05-07T04:01:49;12.00;95.70
52787;DHT22;38661;53.152;5.846;2023-05-07T04:04:15;12.00;95.70
52787;DHT22;38661;53.152;5.846;2023-05-07T04:06:41;11.90;95.70
52787;DHT22;38661;53.152;5.846;2023-05-07T04:09:07;11.90;95.70
52787;DHT22;38661;53.152;5.846;2023-05-07T04:11:33;11.90;95.70
52787;DHT22;38661;53.152;5.846;2023-05-07T04:13:59;11.80;95.60
52787;DHT22;38661;53.152;5.846;2023-05-07T04:16:24;11.90;95.70
52787;DHT22;38661;53.152;5.846;2023-05-07T04:18:50;11.90;95.70
52787;DHT22;38661;53.152;5.846;2023-05-07T04:21:20;11.90;95.80
52787;DHT22;38661;53.152;5.846;2023-05-07T04:23:46;11.90;95.70
52787;DHT22;38661;53.152;5.846;2023-05-07T04:26:12;11.90;95.80
52787;DHT22;38661;53.152;5.846;2023-05-07T04:28:38;11.90;95.80
52787;DHT22;38661;53.152;5.846;2023-05-07T04:31:04;11.80;95.80
52787;DHT22;38661;53.152;5.846;2023-05-07T04:33:34;11.80;95.90
52787;DHT22;38661;53.152;5.846;2023-05-07T04:36:03;11.80;95.90
52787;DHT22;38661;53.152;5.846;2023-05-07T04:38:32;11.80;95.80
52787;DHT22;38661;53.152;5.846;2023-05-07T04:41:05;11.80;95.90
52787;DHT22;38661;53.152;5.846;2023-05-07T04:43:31;11.80;95.90
52787;DHT22;38661;53.152;5.846;2023-05-07T04:45:57;11.80;95.90
52787;DHT22;38661;53.152;5.846;2023-05-07T04:48:22;11.70;95.90
52787;DHT22;38661;53.152;5.846;2023-05-07T04:50:49;11.70;96.00
52787;DHT22;38661;53.152;5.846;2023-05-07T04:53:15;11.80;95.80
52787;DHT22;38661;53.152;5.846;2023-05-07T04:55:41;11.80;95.60
52787;DHT22;38661;53.152;5.846;2023-05-07T04:58:07;11.80;95.50
52787;DHT22;38661;53.152;5.846;2023-05-07T05:00:33;11.80;95.50
52787;DHT22;38661;53.152;5.846;2023-05-07T05:03:00;11.80;95.40
52787;DHT22;38661;53.152;5.846;2023-05-07T05:05:25;11.80;95.20
52787;DHT22;38661;53.152;5.846;2023-05-07T05:07:51;11.80;95.20
52787;DHT22;38661;53.152;5.846;2023-05-07T05:10:17;12.00;95.10
52787;DHT22;38661;53.152;5.846;2023-05-07T05:12:43;11.90;95.00
52787;DHT22;38661;53.152;5.846;2023-05-07T05:15:11;11.90;94.80
52787;DHT22;38661;53.152;5.846;2023-05-07T05:17:38;11.90;94.80
52787;DHT22;38661;53.152;5.846;2023-05-07T05:20:04;12.00;94.70
52787;DHT22;38661;53.152;5.846;2023-05-07T05:22:31;11.90;94.70
52787;DHT22;38661;53.152;5.846;2023-05-07T05:24:57;11.90;94.70
52787;DHT22;38661;53.152;5.846;2023-05-07T05:27:23;11.80;94.90
52787;DHT22;38661;53.152;5.846;2023-05-07T05:29:48;11.80;94.80
52787;DHT22;38661;53.152;5.846;2023-05-07T05:32:14;11.80;94.70
52787;DHT22;38661;53.152;5.846;2023-05-07T05:34:40;11.80;94.60
52787;DHT22;38661;53.152;5.846;2023-05-07T05:37:05;11.80;94.80
52787;DHT22;38661;53.152;5.846;2023-05-07T05:39:31;11.80;94.80
52787;DHT22;38661;53.152;5.846;2023-05-07T05:41:57;11.80;94.70
52787;DHT22;38661;53.152;5.846;2023-05-07T05:44:22;11.90;94.60
52787;DHT22;38661;53.152;5.846;2023-05-07T05:46:48;11.90;94.30
52787;DHT22;38661;53.152;5.846;2023-05-07T05:49:15;11.90;94.50
52787;DHT22;38661;53.152;5.846;2023-05-07T05:51:41;11.90;94.60
52787;DHT22;38661;53.152;5.846;2023-05-07T05:54:06;11.90;94.50
52787;DHT22;38661;53.152;5.846;2023-05-07T05:56:33;11.90;94.50
52787;DHT22;38661;53.152;5.846;2023-05-07T05:58:58;12.00;94.40
52787;DHT22;38661;53.152;5.846;2023-05-07T06:01:24;11.90;94.40
52787;DHT22;38661;53.152;5.846;2023-05-07T06:03:51;12.00;94.20
52787;DHT22;38661;53.152;5.846;2023-05-07T06:06:17;12.00;94.20
52787;DHT22;38661;53.152;5.846;2023-05-07T06:08:43;12.00;94.20
52787;DHT22;38661;53.152;5.846;2023-05-07T06:11:09;12.00;94.20
52787;DHT22;38661;53.152;5.846;2023-05-07T06:13:34;12.00;94.00
52787;DHT22;38661;53.152;5.846;2023-05-07T06:16:00;12.10;93.90
52787;DHT22;38661;53.152;5.846;2023-05-07T06:18:26;12.10;93.80
52787;DHT22;38661;53.152;5.846;2023-05-07T06:20:52;12.10;93.80
52787;DHT22;38661;53.152;5.846;2023-05-07T06:23:18;12.10;93.80
52787;DHT22;38661;53.152;5.846;2023-05-07T06:25:50;12.20;93.70
52787;DHT22;38661;53.152;5.846;2023-05-07T06:28:16;12.30;93.80
52787;DHT22;38661;53.152;5.846;2023-05-07T06:30:42;12.30;93.70
52787;DHT22;38661;53.152;5.846;2023-05-07T06:33:07;12.30;93.60
52787;DHT22;38661;53.152;5.846;2023-05-07T06:35:33;12.40;93.30
52787;DHT22;38661;53.152;5.846;2023-05-07T06:38:00;12.40;93.20
52787;DHT22;38661;53.152;5.846;2023-05-07T06:40:26;12.50;92.90
52787;DHT22;38661;53.152;5.846;2023-05-07T06:42:51;12.50;92.90
52787;DHT22;38661;53.152;5.846;2023-05-07T06:45:17;12.50;92.70
52787;DHT22;38661;53.152;5.846;2023-05-07T06:47:43;12.50;92.50
52787;DHT22;38661;53.152;5.846;2023-05-07T06:50:09;12.50;92.50
52787;DHT22;38661;53.152;5.846;2023-05-07T06:52:35;12.50;92.60
52787;DHT22;38661;53.152;5.846;2023-05-07T06:55:01;12.50;92.70
52787;DHT22;38661;53.152;5.846;2023-05-07T06:57:26;12.50;92.70
52787;DHT22;38661;53.152;5.846;2023-05-07T06:59:52;12.60;92.60
52787;DHT22;38661;53.152;5.846;2023-05-07T07:02:18;12.70;92.60
52787;DHT22;38661;53.152;5.846;2023-05-07T07:04:44;12.80;92.50
52787;DHT22;38661;53.152;5.846;2023-05-07T07:07:10;12.80;92.10
52787;DHT22;38661;53.152;5.846;2023-05-07T07:09:36;12.90;92.30
52787;DHT22;38661;53.152;5.846;2023-05-07T07:12:02;12.90;92.20
52787;DHT22;38661;53.152;5.846;2023-05-07T07:14:28;12.90;92.10
52787;DHT22;38661;53.152;5.846;2023-05-07T07:16:53;12.90;91.40
52787;DHT22;38661;53.152;5.846;2023-05-07T07:19:19;13.00;91.90
52787;DHT22;38661;53.152;5.846;2023-05-07T07:21:46;13.00;91.90
52787;DHT22;38661;53.152;5.846;2023-05-07T07:24:14;13.10;91.30
52787;DHT22;38661;53.152;5.846;2023-05-07T07:26:44;13.20;91.30
52787;DHT22;38661;53.152;5.846;2023-05-07T07:29:10;13.30;90.80
52787;DHT22;38661;53.152;5.846;2023-05-07T07:31:36;13.20;90.50
52787;DHT22;38661;53.152;5.846;2023-05-07T07:34:02;13.20;90.60
52787;DHT22;38661;53.152;5.846;2023-05-07T07:36:27;13.30;90.90
52787;DHT22;38661;53.152;5.846;2023-05-07T07:38:54;13.40;90.50
52787;DHT22;38661;53.152;5.846;2023-05-07T07:41:19;13.40;90.60
52787;DHT22;38661;53.152;5.846;2023-05-07T07:43:45;13.30;90.00
52787;DHT22;38661;53.152;5.846;2023-05-07T07:46:12;13.30;90.00
52787;DHT22;38661;53.152;5.846;2023-05-07T07:48:38;13.20;89.50
52787;DHT22;38661;53.152;5.846;2023-05-07T07:51:03;13.20;89.80
52787;DHT22;38661;53.152;5.846;2023-05-07T07:53:30;13.20;90.10
52787;DHT22;38661;53.152;5.846;2023-05-07T07:55:56;13.20;89.90
52787;DHT22;38661;53.152;5.846;2023-05-07T07:58:21;13.20;90.00
52787;DHT22;38661;53.152;5.846;2023-05-07T08:00:47;13.30;90.10
52787;DHT22;38661;53.152;5.846;2023-05-07T08:03:14;13.30;90.00
52787;DHT22;38661;53.152;5.846;2023-05-07T08:05:42;13.50;89.70
52787;DHT22;38661;53.152;5.846;2023-05-07T08:08:08;13.40;89.40
52787;DHT22;38661;53.152;5.846;2023-05-07T08:10:33;13.50;89.80
52787;DHT22;38661;53.152;5.846;2023-05-07T08:13:00;13.50;89.70
52787;DHT22;38661;53.152;5.846;2023-05-07T08:15:26;13.50;89.70
52787;DHT22;38661;53.152;5.846;2023-05-07T08:17:52;13.50;89.50
52787;DHT22;38661;53.152;5.846;2023-05-07T08:20:17;13.60;89.70
52787;DHT22;38661;53.152;5.846;2023-05-07T08:22:43;13.60;89.70
52787;DHT22;38661;53.152;5.846;2023-05-07T08:25:09;13.60;89.60
52787;DHT22;38661;53.152;5.846;2023-05-07T08:27:35;13.60;89.70
52787;DHT22;38661;53.152;5.846;2023-05-07T08:30:01;13.60;89.50
52787;DHT22;38661;53.152;5.846;2023-05-07T08:32:27;13.70;89.50
52787;DHT22;38661;53.152;5.846;2023-05-07T08:34:53;13.90;89.30
52787;DHT22;38661;53.152;5.846;2023-05-07T08:37:19;14.00;89.20
52787;DHT22;38661;53.152;5.846;2023-05-07T08:39:44;14.10;88.70
52787;DHT22;38661;53.152;5.846;2023-05-07T08:42:11;14.20;88.80
52787;DHT22;38661;53.152;5.846;2023-05-07T08:44:38;14.40;88.90
52787;DHT22;38661;53.152;5.846;2023-05-07T08:47:06;14.50;88.20
52787;DHT22;38661;53.152;5.846;2023-05-07T08:49:33;14.50;87.60
52787;DHT22;38661;53.152;5.846;2023-05-07T08:52:02;14.50;87.60
52787;DHT22;38661;53.152;5.846;2023-05-07T08:54:28;14.60;87.80
52787;DHT22;38661;53.152;5.846;2023-05-07T08:56:57;14.70;87.10
52787;DHT22;38661;53.152;5.846;2023-05-07T08:59:23;14.70;87.10
52787;DHT22;38661;53.152;5.846;2023-05-07T09:01:49;14.90;87.40
52787;DHT22;38661;53.152;5.846;2023-05-07T09:04:14;14.90;87.10
52787;DHT22;38661;53.152;5.846;2023-05-07T09:06:40;14.90;86.30
52787;DHT22;38661;53.152;5.846;2023-05-07T09:09:07;15.00;86.80
52787;DHT22;38661;53.152;5.846;2023-05-07T09:11:33;15.00;86.90
52787;DHT22;38661;53.152;5.846;2023-05-07T09:13:59;15.20;86.80
52787;DHT22;38661;53.152;5.846;2023-05-07T09:16:29;15.00;84.70
52787;DHT22;38661;53.152;5.846;2023-05-07T09:18:59;15.00;85.90
52787;DHT22;38661;53.152;5.846;2023-05-07T09:21:26;15.10;85.80
52787;DHT22;38661;53.152;5.846;2023-05-07T09:23:54;15.20;86.00
52787;DHT22;38661;53.152;5.846;2023-05-07T09:26:24;15.20;86.00
52787;DHT22;38661;53.152;5.846;2023-05-07T09:28:51;15.20;85.70
52787;DHT22;38661;53.152;5.846;2023-05-07T09:31:16;15.10;85.60
52787;DHT22;38661;53.152;5.846;2023-05-07T09:33:42;15.20;85.60
52787;DHT22;38661;53.152;5.846;2023-05-07T09:36:09;15.30;85.30
52787;DHT22;38661;53.152;5.846;2023-05-07T09:38:37;15.30;85.50
52787;DHT22;38661;53.152;5.846;2023-05-07T09:41:07;15.30;84.50
52787;DHT22;38661;53.152;5.846;2023-05-07T09:43:35;15.40;85.30
52787;DHT22;38661;53.152;5.846;2023-05-07T09:46:07;15.60;85.00
52787;DHT22;38661;53.152;5.846;2023-05-07T09:48:38;15.70;84.90
52787;DHT22;38661;53.152;5.846;2023-05-07T09:51:15;16.00;85.20
52787;DHT22;38661;53.152;5.846;2023-05-07T09:53:43;16.10;84.40
52787;DHT22;38661;53.152;5.846;2023-05-07T09:56:12;16.30;84.40
52787;DHT22;38661;53.152;5.846;2023-05-07T09:58:40;16.30;83.00
52787;DHT22;38661;53.152;5.846;2023-05-07T10:01:07;16.50;83.40
52787;DHT22;38661;53.152;5.846;2023-05-07T10:03:35;16.60;83.30
52787;DHT22;38661;53.152;5.846;2023-05-07T10:06:01;16.60;82.90
52787;DHT22;38661;53.152;5.846;2023-05-07T10:08:30;16.70;82.00
52787;DHT22;38661;53.152;5.846;2023-05-07T10:10:56;16.80;81.90
52787;DHT22;38661;53.152;5.846;2023-05-07T10:13:21;16.80;81.10
52787;DHT22;38661;53.152;5.846;2023-05-07T10:15:47;16.90;82.10
52787;DHT22;38661;53.152;5.846;2023-05-07T10:18:15;17.00;80.80
52787;DHT22;38661;53.152;5.846;2023-05-07T10:20:43;17.10;80.70
52787;DHT22;38661;53.152;5.846;2023-05-07T10:23:14;17.20;81.60
52787;DHT22;38661;53.152;5.846;2023-05-07T10:25:43;17.30;80.70
52787;DHT22;38661;53.152;5.846;2023-05-07T10:28:10;17.30;80.50
52787;DHT22;38661;53.152;5.846;2023-05-07T10:33:17;17.10;79.10
52787;DHT22;38661;53.152;5.846;2023-05-07T10:35:46;17.20;80.30
52787;DHT22;38661;53.152;5.846;2023-05-07T10:38:13;17.40;80.70
52787;DHT22;38661;53.152;5.846;2023-05-07T10:40:39;17.50;80.70
52787;DHT22;38661;53.152;5.846;2023-05-07T10:43:05;17.60;79.70
52787;DHT22;38661;53.152;5.846;2023-05-07T10:45:31;17.80;80.20
52787;DHT22;38661;53.152;5.846;2023-05-07T10:50:37;18.00;78.90
52787;DHT22;38661;53.152;5.846;2023-05-07T10:55:52;18.50;78.30
52787;DHT22;38661;53.152;5.846;2023-05-07T10:58:33;18.50;76.90
52787;DHT22;38661;53.152;5.846;2023-05-07T11:01:01;18.80;77.80
52787;DHT22;38661;53.152;5.846;2023-05-07T11:03:28;18.90;76.90
52787;DHT22;38661;53.152;5.846;2023-05-07T11:06:13;19.10;77.40
52787;DHT22;38661;53.152;5.846;2023-05-07T11:08:58;19.10;73.60
52787;DHT22;38661;53.152;5.846;2023-05-07T11:12:02;19.30;76.40
52787;DHT22;38661;53.152;5.846;2023-05-07T11:17:07;19.20;74.00
52787;DHT22;38661;53.152;5.846;2023-05-07T11:20:08;19.30;75.20
52787;DHT22;38661;53.152;5.846;2023-05-07T11:25:05;19.70;75.40
52787;DHT22;38661;53.152;5.846;2023-05-07T11:27:32;19.70;74.80
52787;DHT22;38661;53.152;5.846;2023-05-07T11:29:58;19.80;74.30
52787;DHT22;38661;53.152;5.846;2023-05-07T11:34:54;19.90;73.80
52787;DHT22;38661;53.152;5.846;2023-05-07T11:37:21;20.00;73.40
52787;DHT22;38661;53.152;5.846;2023-05-07T11:39:47;20.10;74.40
52787;DHT22;38661;53.152;5.846;2023-05-07T11:42:36;20.20;73.90
52787;DHT22;38661;53.152;5.846;2023-05-07T11:45:03;20.30;70.50
52787;DHT22;38661;53.152;5.846;2023-05-07T11:47:30;20.30;72.50
52787;DHT22;38661;53.152;5.846;2023-05-07T11:49:56;20.40;72.40
52787;DHT22;38661;53.152;5.846;2023-05-07T11:52:27;20.40;72.50
52787;DHT22;38661;53.152;5.846;2023-05-07T11:54:54;20.60;72.50
52787;DHT22;38661;53.152;5.846;2023-05-07T11:57:21;20.60;71.30
52787;DHT22;38661;53.152;5.846;2023-05-07T11:59:47;20.50;72.50
52787;DHT22;38661;53.152;5.846;2023-05-07T12:02:14;20.30;71.70
52787;DHT22;38661;53.152;5.846;2023-05-07T12:04:40;20.40;72.50
52787;DHT22;38661;53.152;5.846;2023-05-07T12:07:11;20.60;72.50
52787;DHT22;38661;53.152;5.846;2023-05-07T12:09:38;20.80;72.60
52787;DHT22;38661;53.152;5.846;2023-05-07T12:12:04;21.00;72.80
52787;DHT22;38661;53.152;5.846;2023-05-07T12:14:30;21.20;72.70
52787;DHT22;38661;53.152;5.846;2023-05-07T12:16:57;21.40;71.40
52787;DHT22;38661;53.152;5.846;2023-05-07T12:19:23;21.50;69.90
52787;DHT22;38661;53.152;5.846;2023-05-07T12:21:49;21.70;70.40
52787;DHT22;38661;53.152;5.846;2023-05-07T12:24:15;21.80;69.00
52787;DHT22;38661;53.152;5.846;2023-05-07T12:26:41;22.00;69.50
52787;DHT22;38661;53.152;5.846;2023-05-07T12:29:07;22.00;69.40
52787;DHT22;38661;53.152;5.846;2023-05-07T12:31:33;22.00;67.40
52787;DHT22;38661;53.152;5.846;2023-05-07T12:33:58;21.80;67.60
52787;DHT22;38661;53.152;5.846;2023-05-07T12:36:24;21.70;67.60
52787;DHT22;38661;53.152;5.846;2023-05-07T12:38:51;21.80;68.50
52787;DHT22;38661;53.152;5.846;2023-05-07T12:41:17;21.90;68.50
52787;DHT22;38661;53.152;5.846;2023-05-07T12:43:44;21.90;68.90
52787;DHT22;38661;53.152;5.846;2023-05-07T12:46:10;21.90;66.30
52787;DHT22;38661;53.152;5.846;2023-05-07T12:48:43;22.10;68.10
52787;DHT22;38661;53.152;5.846;2023-05-07T12:51:11;22.50;68.60
52787;DHT22;38661;53.152;5.846;2023-05-07T12:53:42;22.60;67.80
52787;DHT22;38661;53.152;5.846;2023-05-07T12:56:08;22.70;67.20
52787;DHT22;38661;53.152;5.846;2023-05-07T12:58:35;22.60;66.10
52787;DHT22;38661;53.152;5.846;2023-05-07T13:01:04;22.60;67.10
52787;DHT22;38661;53.152;5.846;2023-05-07T13:03:32;22.40;66.90
52787;DHT22;38661;53.152;5.846;2023-05-07T13:06:04;22.40;67.80
52787;DHT22;38661;53.152;5.846;2023-05-07T13:10:59;22.20;68.60
52787;DHT22;38661;53.152;5.846;2023-05-07T13:13:25;22.40;68.80
52787;DHT22;38661;53.152;5.846;2023-05-07T13:15:51;22.50;68.20
52787;DHT22;38661;53.152;5.846;2023-05-07T13:18:17;22.70;68.70
52787;DHT22;38661;53.152;5.846;2023-05-07T13:20:43;22.70;66.40
52787;DHT22;38661;53.152;5.846;2023-05-07T13:23:09;23.00;66.20
52787;DHT22;38661;53.152;5.846;2023-05-07T13:25:34;23.20;66.80
52787;DHT22;38661;53.152;5.846;2023-05-07T13:28:00;23.10;65.50
52787;DHT22;38661;53.152;5.846;2023-05-07T13:30:26;23.10;64.80
52787;DHT22;38661;53.152;5.846;2023-05-07T13:32:55;23.30;65.60
52787;DHT22;38661;53.152;5.846;2023-05-07T13:35:21;23.40;65.50
52787;DHT22;38661;53.152;5.846;2023-05-07T13:37:47;23.70;65.70
52787;DHT22;38661;53.152;5.846;2023-05-07T13:40:17;23.80;65.50
52787;DHT22;38661;53.152;5.846;2023-05-07T13:42:44;23.90;65.80
52787;DHT22;38661;53.152;5.846;2023-05-07T13:45:10;24.20;65.70
52787;DHT22;38661;53.152;5.846;2023-05-07T13:47:36;24.20;64.70
52787;DHT22;38661;53.152;5.846;2023-05-07T13:50:02;24.30;65.00
52787;DHT22;38661;53.152;5.846;2023-05-07T13:52:27;24.30;62.40
52787;DHT22;38661;53.152;5.846;2023-05-07T13:54:53;24.20;63.90
52787;DHT22;38661;53.152;5.846;2023-05-07T13:57:20;24.10;63.10
52787;DHT22;38661;53.152;5.846;2023-05-07T13:59:46;23.90;62.60
52787;DHT22;38661;53.152;5.846;2023-05-07T14:02:11;23.90;63.00
52787;DHT22;38661;53.152;5.846;2023-05-07T14:04:37;23.80;62.40
52787;DHT22;38661;53.152;5.846;2023-05-07T14:07:09;23.70;61.90
52787;DHT22;38661;53.152;5.846;2023-05-07T14:09:44;23.50;62.70
52787;DHT22;38661;53.152;5.846;2023-05-07T14:13:00;23.10;59.70
52787;DHT22;38661;53.152;5.846;2023-05-07T14:15:28;22.80;62.80
52787;DHT22;38661;53.152;5.846;2023-05-07T14:17:54;22.70;63.00
52787;DHT22;38661;53.152;5.846;2023-05-07T14:20:23;22.80;63.50
52787;DHT22;38661;53.152;5.846;2023-05-07T14:22:49;22.90;63.50
52787;DHT22;38661;53.152;5.846;2023-05-07T14:25:14;22.80;63.20
52787;DHT22;38661;53.152;5.846;2023-05-07T14:27:40;22.80;63.20
52787;DHT22;38661;53.152;5.846;2023-05-07T14:30:07;22.80;62.90
52787;DHT22;38661;53.152;5.846;2023-05-07T14:32:33;22.70;63.00
52787;DHT22;38661;53.152;5.846;2023-05-07T14:35:05;22.80;63.30
52787;DHT22;38661;53.152;5.846;2023-05-07T14:37:34;22.90;63.40
52787;DHT22;38661;53.152;5.846;2023-05-07T14:39:59;22.80;62.40
52787;DHT22;38661;53.152;5.846;2023-05-07T14:42:25;22.70;62.20
52787;DHT22;38661;53.152;5.846;2023-05-07T14:44:51;22.60;63.00
52787;DHT22;38661;53.152;5.846;2023-05-07T14:47:18;22.40;63.20
52787;DHT22;38661;53.152;5.846;2023-05-07T14:49:43;22.30;63.70
52787;DHT22;38661;53.152;5.846;2023-05-07T14:52:09;22.20;64.40
52787;DHT22;38661;53.152;5.846;2023-05-07T14:54:36;22.10;65.10
52787;DHT22;38661;53.152;5.846;2023-05-07T14:57:02;22.00;64.80
52787;DHT22;38661;53.152;5.846;2023-05-07T14:59:28;21.90;64.80
52787;DHT22;38661;53.152;5.846;2023-05-07T15:01:54;21.80;65.50
52787;DHT22;38661;53.152;5.846;2023-05-07T15:04:20;21.70;66.00
52787;DHT22;38661;53.152;5.846;2023-05-07T15:06:45;21.80;66.80
52787;DHT22;38661;53.152;5.846;2023-05-07T15:09:12;21.70;67.40
52787;DHT22;38661;53.152;5.846;2023-05-07T15:11:37;21.70;68.10
52787;DHT22;38661;53.152;5.846;2023-05-07T15:14:03;21.70;68.30
52787;DHT22;38661;53.152;5.846;2023-05-07T15:16:29;21.70;68.40
52787;DHT22;38661;53.152;5.846;2023-05-07T15:18:55;21.70;68.60
52787;DHT22;38661;53.152;5.846;2023-05-07T15:21:20;21.70;68.60
52787;DHT22;38661;53.152;5.846;2023-05-07T15:23:46;21.60;68.80
52787;DHT22;38661;53.152;5.846;2023-05-07T15:26:12;21.50;68.80
52787;DHT22;38661;53.152;5.846;2023-05-07T15:28:37;21.40;68.60
52787;DHT22;38661;53.152;5.846;2023-05-07T15:31:04;21.20;68.40
52787;DHT22;38661;53.152;5.846;2023-05-07T15:33:31;21.10;68.20
52787;DHT22;38661;53.152;5.846;2023-05-07T15:35:59;21.00;69.10
52787;DHT22;38661;53.152;5.846;2023-05-07T15:38:28;21.00;69.40
52787;DHT22;38661;53.152;5.846;2023-05-07T15:40:54;21.00;69.80
52787;DHT22;38661;53.152;5.846;2023-05-07T15:43:20;20.90;68.80
52787;DHT22;38661;53.152;5.846;2023-05-07T15:45:46;20.80;69.10
52787;DHT22;38661;53.152;5.846;2023-05-07T15:48:11;20.80;69.70